sensor_id;sensor_type;location;lat;lon;timestamp;pressure;altitude;pressure_sealevel;temperature;humidity
75945;BME280;64628;50.104;14.614;2023-11-19T00:01:29;98955.75;;;5.19;43.84
75945;BME280;64628;50.104;14.614;2023-11-19T00:03:54;98948.20;;;5.79;43.65
75945;BME280;64628;50.104;14.614;2023-11-19T00:06:20;98938.67;;;5.89;43.92
75945;BME280;64628;50.104;14.614;2023-11-19T00:08:46;98923.99;;;5.38;43.86
75945;BME280;64628;50.104;14.614;2023-11-19T00:11:11;98908.67;;;5.76;43.95
75945;BME280;64628;50.104;14.614;2023-11-19T00:13:37;98899.70;;;5.72;44.12
75945;BME280;64628;50.104;14.614;2023-11-19T00:16:02;98891.95;;;5.05;44.36
75945;BME280;64628;50.104;14.614;2023-11-19T00:18:27;98882.47;;;5.45;44.65
75945;BME280;64628;50.104;14.614;2023-11-19T00:20:53;98873.67;;;5.51;44.71
75945;BME280;64628;50.104;14.614;2023-11-19T00:23:18;98870.22;;;5.23;44.47
75945;BME280;64628;50.104;14.614;2023-11-19T00:25:44;98871.29;;;5.50;44.47
75945;BME280;64628;50.104;14.614;2023-11-19T00:28:10;98875.00;;;5.49;44.94
75945;BME280;64628;50.104;14.614;2023-11-19T00:30:35;98862.39;;;5.61;44.86
75945;BME280;64628;50.104;14.614;2023-11-19T00:33:00;98854.49;;;5.53;44.91
75945;BME280;64628;50.104;14.614;2023-11-19T00:35:26;98841.54;;;5.45;45.19
75945;BME280;64628;50.104;14.614;2023-11-19T00:37:51;98835.93;;;5.37;45.18
75945;BME280;64628;50.104;14.614;2023-11-19T00:40:17;98832.98;;;5.01;45.90
75945;BME280;64628;50.104;14.614;2023-11-19T00:42:42;98834.12;;;5.38;45.80
75945;BME280;64628;50.104;14.614;2023-11-19T00:45:08;98836.94;;;5.18;46.00
75945;BME280;64628;50.104;14.614;2023-11-19T00:47:33;98832.32;;;5.22;45.91
75945;BME280;64628;50.104;14.614;2023-11-19T00:49:59;98818.47;;;4.91;46.41
75945;BME280;64628;50.104;14.614;2023-11-19T00:52:24;98812.44;;;4.68;46.50
75945;BME280;64628;50.104;14.614;2023-11-19T00:54:49;98817.29;;;4.95;46.53
75945;BME280;64628;50.104;14.614;2023-11-19T00:57:15;98812.98;;;5.22;46.01
75945;BME280;64628;50.104;14.614;2023-11-19T00:59:42;98807.73;;;5.04;46.15
75945;BME280;64628;50.104;14.614;2023-11-19T01:02:06;98804.31;;;5.11;46.10
75945;BME280;64628;50.104;14.614;2023-11-19T01:04:33;98803.07;;;5.00;46.27
75945;BME280;64628;50.104;14.614;2023-11-19T01:06:57;98797.24;;;5.05;45.84
75945;BME280;64628;50.104;14.614;2023-11-19T01:09:23;98785.04;;;5.33;45.95
75945;BME280;64628;50.104;14.614;2023-11-19T01:11:48;98783.74;;;4.99;46.26
75945;BME280;64628;50.104;14.614;2023-11-19T01:14:14;98782.46;;;5.10;45.60
75945;BME280;64628;50.104;14.614;2023-11-19T01:16:40;98792.03;;;5.13;45.89
75945;BME280;64628;50.104;14.614;2023-11-19T01:19:05;98782.60;;;4.82;46.09
75945;BME280;64628;50.104;14.614;2023-11-19T01:21:31;98769.79;;;5.37;45.44
75945;BME280;64628;50.104;14.614;2023-11-19T01:23:57;98772.24;;;4.98;45.85
75945;BME280;64628;50.104;14.614;2023-11-19T01:26:22;98762.49;;;4.91;45.93
75945;BME280;64628;50.104;14.614;2023-11-19T01:28:47;98754.89;;;4.99;45.64
75945;BME280;64628;50.104;14.614;2023-11-19T01:31:15;98742.90;;;5.24;45.08
75945;BME280;64628;50.104;14.614;2023-11-19T01:33:37;98744.46;;;5.01;45.70
75945;BME280;64628;50.104;14.614;2023-11-19T01:36:03;98747.26;;;5.00;45.62
75945;BME280;64628;50.104;14.614;2023-11-19T01:38:28;98744.44;;;5.17;45.51
75945;BME280;64628;50.104;14.614;2023-11-19T01:40:56;98730.01;;;5.17;45.29
75945;BME280;64628;50.104;14.614;2023-11-19T01:43:33;98722.92;;;5.41;45.00
75945;BME280;64628;50.104;14.614;2023-11-19T01:45:45;98728.40;;;5.36;45.49
75945;BME280;64628;50.104;14.614;2023-11-19T01:48:10;98726.39;;;5.09;45.86
75945;BME280;64628;50.104;14.614;2023-11-19T01:50:36;98712.44;;;5.45;46.66
75945;BME280;64628;50.104;14.614;2023-11-19T01:53:01;98702.00;;;5.08;47.13
75945;BME280;64628;50.104;14.614;2023-11-19T01:55:27;98687.67;;;5.16;47.21
75945;BME280;64628;50.104;14.614;2023-11-19T01:57:53;98683.69;;;4.93;47.25
75945;BME280;64628;50.104;14.614;2023-11-19T02:00:18;98685.48;;;5.06;47.29
75945;BME280;64628;50.104;14.614;2023-11-19T02:02:44;98686.79;;;5.23;47.40
75945;BME280;64628;50.104;14.614;2023-11-19T02:05:10;98685.30;;;4.61;47.58
75945;BME280;64628;50.104;14.614;2023-11-19T02:07:34;98687.48;;;5.32;47.47
75945;BME280;64628;50.104;14.614;2023-11-19T02:10:00;98685.45;;;4.95;47.39
75945;BME280;64628;50.104;14.614;2023-11-19T02:12:26;98680.19;;;5.05;47.30
75945;BME280;64628;50.104;14.614;2023-11-19T02:14:51;98673.61;;;4.90;47.58
75945;BME280;64628;50.104;14.614;2023-11-19T02:17:26;98662.51;;;5.25;47.38
75945;BME280;64628;50.104;14.614;2023-11-19T02:19:42;98655.14;;;4.51;48.04
75945;BME280;64628;50.104;14.614;2023-11-19T02:22:07;98647.61;;;4.97;48.00
75945;BME280;64628;50.104;14.614;2023-11-19T02:24:33;98639.48;;;4.84;48.07
75945;BME280;64628;50.104;14.614;2023-11-19T02:27:02;98630.66;;;4.86;48.08
75945;BME280;64628;50.104;14.614;2023-11-19T02:29:24;98623.80;;;4.65;48.15
75945;BME280;64628;50.104;14.614;2023-11-19T02:31:49;98623.64;;;4.66;48.04
75945;BME280;64628;50.104;14.614;2023-11-19T02:34:14;98627.67;;;4.88;47.68
75945;BME280;64628;50.104;14.614;2023-11-19T02:36:39;98623.20;;;5.08;47.36
75945;BME280;64628;50.104;14.614;2023-11-19T02:39:05;98620.60;;;4.73;47.85
75945;BME280;64628;50.104;14.614;2023-11-19T02:41:31;98614.62;;;5.10;47.38
75945;BME280;64628;50.104;14.614;2023-11-19T02:43:57;98611.45;;;4.82;47.78
75945;BME280;64628;50.104;14.614;2023-11-19T02:46:22;98617.66;;;5.10;47.52
75945;BME280;64628;50.104;14.614;2023-11-19T02:48:47;98621.34;;;5.36;47.28
75945;BME280;64628;50.104;14.614;2023-11-19T02:51:13;98616.73;;;5.31;47.43
75945;BME280;64628;50.104;14.614;2023-11-19T02:53:38;98613.66;;;5.27;46.95
75945;BME280;64628;50.104;14.614;2023-11-19T02:56:04;98607.96;;;5.52;46.95
75945;BME280;64628;50.104;14.614;2023-11-19T02:58:30;98607.77;;;5.62;46.88
75945;BME280;64628;50.104;14.614;2023-11-19T03:00:55;98603.72;;;5.84;46.43
75945;BME280;64628;50.104;14.614;2023-11-19T03:03:21;98589.68;;;5.87;46.23
75945;BME280;64628;50.104;14.614;2023-11-19T03:05:47;98581.54;;;5.58;46.76
75945;BME280;64628;50.104;14.614;2023-11-19T03:08:12;98586.02;;;5.38;47.08
75945;BME280;64628;50.104;14.614;2023-11-19T03:10:37;98586.40;;;5.58;46.75
75945;BME280;64628;50.104;14.614;2023-11-19T03:13:02;98579.05;;;5.46;46.93
75945;BME280;64628;50.104;14.614;2023-11-19T03:15:27;98562.77;;;4.92;47.22
75945;BME280;64628;50.104;14.614;2023-11-19T03:17:52;98551.92;;;5.40;47.33
75945;BME280;64628;50.104;14.614;2023-11-19T03:20:17;98542.75;;;5.17;47.80
75945;BME280;64628;50.104;14.614;2023-11-19T03:22:43;98545.82;;;5.25;47.49
75945;BME280;64628;50.104;14.614;2023-11-19T03:25:08;98552.89;;;5.34;47.36
75945;BME280;64628;50.104;14.614;2023-11-19T03:27:34;98548.61;;;5.52;47.08
75945;BME280;64628;50.104;14.614;2023-11-19T03:29:59;98548.13;;;5.24;47.08
75945;BME280;64628;50.104;14.614;2023-11-19T03:32:24;98538.80;;;5.28;47.24
75945;BME280;64628;50.104;14.614;2023-11-19T03:34:50;98526.21;;;5.20;47.33
75945;BME280;64628;50.104;14.614;2023-11-19T03:37:15;98518.35;;;5.28;47.36
75945;BME280;64628;50.104;14.614;2023-11-19T03:39:40;98523.20;;;5.36;47.36
75945;BME280;64628;50.104;14.614;2023-11-19T03:42:05;98526.73;;;5.38;47.34
75945;BME280;64628;50.104;14.614;2023-11-19T03:44:30;98522.53;;;5.40;47.26
75945;BME280;64628;50.104;14.614;2023-11-19T03:46:56;98502.60;;;5.70;46.81
75945;BME280;64628;50.104;14.614;2023-11-19T03:49:21;98490.80;;;5.76;46.66
75945;BME280;64628;50.104;14.614;2023-11-19T03:51:46;98490.07;;;5.44;46.64
75945;BME280;64628;50.104;14.614;2023-11-19T03:54:11;98495.27;;;5.72;46.86
75945;BME280;64628;50.104;14.614;2023-11-19T03:56:37;98501.36;;;5.87;46.43
75945;BME280;64628;50.104;14.614;2023-11-19T03:59:02;98487.45;;;5.71;46.24
75945;BME280;64628;50.104;14.614;2023-11-19T04:01:28;98484.89;;;5.84;46.48
75945;BME280;64628;50.104;14.614;2023-11-19T04:03:53;98483.36;;;5.25;46.72
75945;BME280;64628;50.104;14.614;2023-11-19T04:06:18;98481.30;;;5.53;46.72
75945;BME280;64628;50.104;14.614;2023-11-19T04:08:44;98482.49;;;5.96;46.41
75945;BME280;64628;50.104;14.614;2023-11-19T04:11:10;98471.07;;;5.86;46.09
75945;BME280;64628;50.104;14.614;2023-11-19T04:13:35;98464.14;;;5.61;47.04
75945;BME280;64628;50.104;14.614;2023-11-19T04:16:01;98467.45;;;5.58;47.11
75945;BME280;64628;50.104;14.614;2023-11-19T04:18:26;98460.54;;;4.90;48.04
75945;BME280;64628;50.104;14.614;2023-11-19T04:20:52;98455.03;;;5.46;47.76
75945;BME280;64628;50.104;14.614;2023-11-19T04:23:17;98444.13;;;5.64;47.53
75945;BME280;64628;50.104;14.614;2023-11-19T04:25:43;98438.38;;;5.78;47.45
75945;BME280;64628;50.104;14.614;2023-11-19T04:28:09;98440.51;;;5.76;47.32
75945;BME280;64628;50.104;14.614;2023-11-19T04:30:34;98429.60;;;5.74;47.37
75945;BME280;64628;50.104;14.614;2023-11-19T04:33:00;98419.34;;;5.63;47.78
75945;BME280;64628;50.104;14.614;2023-11-19T04:35:24;98415.37;;;5.61;47.82
75945;BME280;64628;50.104;14.614;2023-11-19T04:37:50;98407.50;;;5.76;47.65
75945;BME280;64628;50.104;14.614;2023-11-19T04:40:15;98407.45;;;5.36;48.46
75945;BME280;64628;50.104;14.614;2023-11-19T04:42:40;98404.47;;;5.38;48.68
75945;BME280;64628;50.104;14.614;2023-11-19T04:45:07;98394.35;;;5.52;48.53
75945;BME280;64628;50.104;14.614;2023-11-19T04:47:32;98398.83;;;5.20;49.00
75945;BME280;64628;50.104;14.614;2023-11-19T04:49:57;98402.20;;;5.24;49.11
75945;BME280;64628;50.104;14.614;2023-11-19T04:52:23;98394.30;;;4.98;49.50
75945;BME280;64628;50.104;14.614;2023-11-19T04:54:48;98390.59;;;5.00;50.50
75945;BME280;64628;50.104;14.614;2023-11-19T04:57:13;98384.75;;;5.11;49.70
75945;BME280;64628;50.104;14.614;2023-11-19T04:59:39;98369.14;;;4.94;49.61
75945;BME280;64628;50.104;14.614;2023-11-19T05:02:04;98351.10;;;5.15;49.85
75945;BME280;64628;50.104;14.614;2023-11-19T05:04:29;98355.95;;;5.30;49.46
75945;BME280;64628;50.104;14.614;2023-11-19T05:06:54;98357.52;;;5.34;49.50
75945;BME280;64628;50.104;14.614;2023-11-19T05:09:19;98347.47;;;5.27;49.64
75945;BME280;64628;50.104;14.614;2023-11-19T05:11:45;98338.72;;;5.75;49.78
75945;BME280;64628;50.104;14.614;2023-11-19T05:14:10;98336.56;;;5.02;49.61
75945;BME280;64628;50.104;14.614;2023-11-19T05:16:37;98331.68;;;5.22;49.99
75945;BME280;64628;50.104;14.614;2023-11-19T05:19:02;98327.89;;;5.30;49.91
75945;BME280;64628;50.104;14.614;2023-11-19T05:21:27;98327.07;;;5.30;49.76
75945;BME280;64628;50.104;14.614;2023-11-19T05:23:53;98321.85;;;5.22;50.19
75945;BME280;64628;50.104;14.614;2023-11-19T05:26:19;98327.47;;;5.34;50.07
75945;BME280;64628;50.104;14.614;2023-11-19T05:28:44;98333.18;;;5.50;49.65
75945;BME280;64628;50.104;14.614;2023-11-19T05:31:09;98331.01;;;5.75;49.23
75945;BME280;64628;50.104;14.614;2023-11-19T05:33:35;98320.61;;;5.48;49.00
75945;BME280;64628;50.104;14.614;2023-11-19T05:36:00;98312.36;;;5.64;49.24
75945;BME280;64628;50.104;14.614;2023-11-19T05:38:25;98306.13;;;5.95;48.82
75945;BME280;64628;50.104;14.614;2023-11-19T05:40:51;98293.70;;;5.70;48.80
75945;BME280;64628;50.104;14.614;2023-11-19T05:43:16;98289.79;;;5.81;49.06
75945;BME280;64628;50.104;14.614;2023-11-19T05:45:42;98285.15;;;6.12;48.48
75945;BME280;64628;50.104;14.614;2023-11-19T05:48:07;98282.98;;;5.75;48.33
75945;BME280;64628;50.104;14.614;2023-11-19T05:50:33;98279.39;;;5.67;48.49
75945;BME280;64628;50.104;14.614;2023-11-19T05:52:58;98281.73;;;6.19;48.44
75945;BME280;64628;50.104;14.614;2023-11-19T05:55:24;98286.08;;;5.81;48.52
75945;BME280;64628;50.104;14.614;2023-11-19T05:57:49;98281.34;;;5.78;48.58
75945;BME280;64628;50.104;14.614;2023-11-19T06:00:15;98281.38;;;5.97;48.52
75945;BME280;64628;50.104;14.614;2023-11-19T06:02:41;98281.07;;;5.88;48.74
75945;BME280;64628;50.104;14.614;2023-11-19T06:05:07;98283.67;;;6.23;48.48
75945;BME280;64628;50.104;14.614;2023-11-19T06:07:32;98276.30;;;5.93;48.22
75945;BME280;64628;50.104;14.614;2023-11-19T06:09:57;98271.29;;;5.86;48.48
75945;BME280;64628;50.104;14.614;2023-11-19T06:12:23;98265.42;;;6.23;48.77
75945;BME280;64628;50.104;14.614;2023-11-19T06:14:48;98263.44;;;5.88;48.88
75945;BME280;64628;50.104;14.614;2023-11-19T06:17:14;98263.33;;;5.87;49.12
75945;BME280;64628;50.104;14.614;2023-11-19T06:19:39;98256.90;;;6.00;49.06
75945;BME280;64628;50.104;14.614;2023-11-19T06:22:05;98257.37;;;5.78;49.10
75945;BME280;64628;50.104;14.614;2023-11-19T06:24:30;98258.14;;;5.48;49.74
75945;BME280;64628;50.104;14.614;2023-11-19T06:26:56;98264.39;;;6.11;49.58
75945;BME280;64628;50.104;14.614;2023-11-19T06:29:21;98265.37;;;5.74;49.37
75945;BME280;64628;50.104;14.614;2023-11-19T06:31:47;98252.51;;;5.93;50.29
75945;BME280;64628;50.104;14.614;2023-11-19T06:34:12;98230.37;;;6.00;50.04
75945;BME280;64628;50.104;14.614;2023-11-19T06:36:38;98240.79;;;5.12;50.71
75945;BME280;64628;50.104;14.614;2023-11-19T06:39:04;98244.46;;;5.31;51.12
75945;BME280;64628;50.104;14.614;2023-11-19T06:41:29;98249.42;;;5.28;51.72
75945;BME280;64628;50.104;14.614;2023-11-19T06:43:55;98252.83;;;5.08;51.85
75945;BME280;64628;50.104;14.614;2023-11-19T06:46:20;98250.87;;;5.55;51.50
75945;BME280;64628;50.104;14.614;2023-11-19T06:48:46;98253.42;;;5.65;51.31
75945;BME280;64628;50.104;14.614;2023-11-19T06:51:11;98250.32;;;5.67;51.24
75945;BME280;64628;50.104;14.614;2023-11-19T06:53:36;98252.66;;;5.82;51.06
75945;BME280;64628;50.104;14.614;2023-11-19T06:56:02;98249.45;;;5.60;51.00
75945;BME280;64628;50.104;14.614;2023-11-19T06:58:28;98247.69;;;5.75;51.09
75945;BME280;64628;50.104;14.614;2023-11-19T07:00:53;98243.86;;;5.73;51.28
75945;BME280;64628;50.104;14.614;2023-11-19T07:03:18;98243.47;;;5.23;51.75
75945;BME280;64628;50.104;14.614;2023-11-19T07:05:44;98241.88;;;5.64;51.68
75945;BME280;64628;50.104;14.614;2023-11-19T07:08:09;98248.29;;;5.86;51.08
75945;BME280;64628;50.104;14.614;2023-11-19T07:10:34;98245.81;;;5.39;51.18
75945;BME280;64628;50.104;14.614;2023-11-19T07:13:00;98243.69;;;5.74;51.09
75945;BME280;64628;50.104;14.614;2023-11-19T07:15:26;98236.18;;;6.23;50.70
75945;BME280;64628;50.104;14.614;2023-11-19T07:17:51;98240.96;;;5.88;50.57
75945;BME280;64628;50.104;14.614;2023-11-19T07:20:17;98240.29;;;5.95;50.85
75945;BME280;64628;50.104;14.614;2023-11-19T07:22:43;98242.85;;;6.02;50.74
75945;BME280;64628;50.104;14.614;2023-11-19T07:25:08;98243.73;;;6.10;50.62
75945;BME280;64628;50.104;14.614;2023-11-19T07:27:33;98246.81;;;5.97;50.89
75945;BME280;64628;50.104;14.614;2023-11-19T07:29:59;98239.09;;;5.79;49.91
75945;BME280;64628;50.104;14.614;2023-11-19T07:32:24;98222.87;;;5.94;49.86
75945;BME280;64628;50.104;14.614;2023-11-19T07:34:50;98215.94;;;5.99;49.66
75945;BME280;64628;50.104;14.614;2023-11-19T07:37:15;98211.83;;;6.29;49.05
75945;BME280;64628;50.104;14.614;2023-11-19T07:39:40;98211.78;;;6.01;49.16
75945;BME280;64628;50.104;14.614;2023-11-19T07:42:06;98213.34;;;6.50;49.10
75945;BME280;64628;50.104;14.614;2023-11-19T07:44:31;98222.86;;;6.22;49.09
75945;BME280;64628;50.104;14.614;2023-11-19T07:46:56;98218.98;;;6.26;49.30
75945;BME280;64628;50.104;14.614;2023-11-19T07:49:22;98223.99;;;6.66;48.75
75945;BME280;64628;50.104;14.614;2023-11-19T07:51:47;98225.42;;;6.49;48.72
75945;BME280;64628;50.104;14.614;2023-11-19T07:54:12;98235.94;;;6.19;49.28
75945;BME280;64628;50.104;14.614;2023-11-19T07:56:38;98241.90;;;6.80;48.51
75945;BME280;64628;50.104;14.614;2023-11-19T07:59:03;98239.72;;;6.59;48.85
75945;BME280;64628;50.104;14.614;2023-11-19T08:01:29;98243.20;;;6.73;48.61
75945;BME280;64628;50.104;14.614;2023-11-19T08:03:54;98238.82;;;6.70;48.76
75945;BME280;64628;50.104;14.614;2023-11-19T08:06:19;98231.43;;;6.19;49.04
75945;BME280;64628;50.104;14.614;2023-11-19T08:08:45;98230.77;;;6.68;48.79
75945;BME280;64628;50.104;14.614;2023-11-19T08:11:11;98237.36;;;6.68;48.64
75945;BME280;64628;50.104;14.614;2023-11-19T08:13:36;98230.13;;;6.47;48.66
75945;BME280;64628;50.104;14.614;2023-11-19T08:16:01;98228.28;;;6.93;48.47
75945;BME280;64628;50.104;14.614;2023-11-19T08:18:27;98222.59;;;7.11;48.06
75945;BME280;64628;50.104;14.614;2023-11-19T08:20:52;98220.44;;;6.83;48.09
75945;BME280;64628;50.104;14.614;2023-11-19T08:23:18;98212.54;;;7.12;48.19
75945;BME280;64628;50.104;14.614;2023-11-19T08:25:43;98200.34;;;7.13;47.99
75945;BME280;64628;50.104;14.614;2023-11-19T08:28:09;98197.28;;;6.85;48.36
75945;BME280;64628;50.104;14.614;2023-11-19T08:30:34;98192.35;;;7.50;47.76
75945;BME280;64628;50.104;14.614;2023-11-19T08:32:59;98197.37;;;6.91;48.54
75945;BME280;64628;50.104;14.614;2023-11-19T08:35:25;98189.36;;;6.99;48.47
75945;BME280;64628;50.104;14.614;2023-11-19T08:37:50;98189.71;;;6.72;48.64
75945;BME280;64628;50.104;14.614;2023-11-19T08:40:16;98185.33;;;6.95;48.56
75945;BME280;64628;50.104;14.614;2023-11-19T08:42:41;98190.56;;;7.13;48.38
75945;BME280;64628;50.104;14.614;2023-11-19T08:45:07;98189.50;;;7.35;48.60
75945;BME280;64628;50.104;14.614;2023-11-19T08:47:32;98187.84;;;6.94;48.49
75945;BME280;64628;50.104;14.614;2023-11-19T08:49:57;98206.02;;;7.21;48.90
75945;BME280;64628;50.104;14.614;2023-11-19T08:52:23;98201.92;;;6.84;48.98
75945;BME280;64628;50.104;14.614;2023-11-19T08:54:48;98197.58;;;7.05;48.50
75945;BME280;64628;50.104;14.614;2023-11-19T08:57:14;98200.16;;;7.02;48.70
75945;BME280;64628;50.104;14.614;2023-11-19T08:59:40;98206.15;;;7.16;48.76
75945;BME280;64628;50.104;14.614;2023-11-19T09:02:05;98201.76;;;7.15;48.46
75945;BME280;64628;50.104;14.614;2023-11-19T09:04:31;98206.71;;;7.43;48.22
75945;BME280;64628;50.104;14.614;2023-11-19T09:06:58;98199.83;;;7.59;47.66
75945;BME280;64628;50.104;14.614;2023-11-19T09:09:22;98197.29;;;7.71;48.11
75945;BME280;64628;50.104;14.614;2023-11-19T09:11:48;98199.80;;;7.80;47.84
75945;BME280;64628;50.104;14.614;2023-11-19T09:14:18;98201.92;;;7.49;48.16
75945;BME280;64628;50.104;14.614;2023-11-19T09:16:38;98197.93;;;7.69;47.91
75945;BME280;64628;50.104;14.614;2023-11-19T09:19:04;98199.33;;;7.97;48.04
75945;BME280;64628;50.104;14.614;2023-11-19T09:21:30;98199.64;;;7.71;47.72
75945;BME280;64628;50.104;14.614;2023-11-19T09:23:55;98194.95;;;7.98;47.97
75945;BME280;64628;50.104;14.614;2023-11-19T09:26:21;98180.90;;;8.20;47.79
75945;BME280;64628;50.104;14.614;2023-11-19T09:28:47;98173.85;;;8.53;47.45
75945;BME280;64628;50.104;14.614;2023-11-19T09:31:13;98181.18;;;8.41;47.36
75945;BME280;64628;50.104;14.614;2023-11-19T09:33:38;98176.35;;;8.63;47.48
75945;BME280;64628;50.104;14.614;2023-11-19T09:36:03;98161.92;;;8.38;47.48
75945;BME280;64628;50.104;14.614;2023-11-19T09:38:28;98147.82;;;8.79;47.04
75945;BME280;64628;50.104;14.614;2023-11-19T09:40:53;98138.77;;;9.17;46.84
75945;BME280;64628;50.104;14.614;2023-11-19T09:43:18;98146.08;;;9.17;46.63
75945;BME280;64628;50.104;14.614;2023-11-19T09:45:48;98148.75;;;9.14;46.70
75945;BME280;64628;50.104;14.614;2023-11-19T09:48:10;98141.11;;;9.32;46.99
75945;BME280;64628;50.104;14.614;2023-11-19T09:50:35;98151.32;;;9.48;46.40
75945;BME280;64628;50.104;14.614;2023-11-19T09:53:00;98148.34;;;9.90;46.59
75945;BME280;64628;50.104;14.614;2023-11-19T09:55:26;98141.24;;;10.37;46.23
75945;BME280;64628;50.104;14.614;2023-11-19T09:57:52;98135.82;;;11.49;43.33
75945;BME280;64628;50.104;14.614;2023-11-19T10:00:19;98140.89;;;13.57;40.07
75945;BME280;64628;50.104;14.614;2023-11-19T10:02:43;98145.85;;;13.86;38.45
75945;BME280;64628;50.104;14.614;2023-11-19T10:05:08;98137.01;;;13.15;39.45
75945;BME280;64628;50.104;14.614;2023-11-19T10:07:33;98133.58;;;12.91;40.43
75945;BME280;64628;50.104;14.614;2023-11-19T10:09:58;98132.21;;;13.17;40.72
75945;BME280;64628;50.104;14.614;2023-11-19T10:14:50;98133.51;;;14.85;36.65
75945;BME280;64628;50.104;14.614;2023-11-19T10:17:15;98134.38;;;16.18;35.10
75945;BME280;64628;50.104;14.614;2023-11-19T10:19:40;98125.35;;;16.23;34.08
75945;BME280;64628;50.104;14.614;2023-11-19T10:22:06;98119.54;;;16.54;33.87
75945;BME280;64628;50.104;14.614;2023-11-19T10:24:32;98120.49;;;16.36;33.82
75945;BME280;64628;50.104;14.614;2023-11-19T10:26:58;98119.61;;;16.49;33.87
75945;BME280;64628;50.104;14.614;2023-11-19T10:29:24;98115.29;;;15.71;34.89
75945;BME280;64628;50.104;14.614;2023-11-19T10:31:55;98102.14;;;16.09;35.09
75945;BME280;64628;50.104;14.614;2023-11-19T10:36:39;98104.93;;;14.32;37.88
75945;BME280;64628;50.104;14.614;2023-11-19T10:39:04;98102.51;;;14.64;38.28
75945;BME280;64628;50.104;14.614;2023-11-19T10:41:31;98094.54;;;14.18;38.48
75945;BME280;64628;50.104;14.614;2023-11-19T10:43:55;98095.47;;;14.29;38.76
75945;BME280;64628;50.104;14.614;2023-11-19T10:46:20;98088.95;;;13.45;40.39
75945;BME280;64628;50.104;14.614;2023-11-19T10:48:45;98091.73;;;13.51;40.71
75945;BME280;64628;50.104;14.614;2023-11-19T10:51:13;98090.75;;;13.45;41.41
75945;BME280;64628;50.104;14.614;2023-11-19T10:53:37;98088.98;;;13.92;41.93
75945;BME280;64628;50.104;14.614;2023-11-19T10:56:06;98089.98;;;13.54;41.03
75945;BME280;64628;50.104;14.614;2023-11-19T10:58:28;98096.13;;;13.55;41.34
75945;BME280;64628;50.104;14.614;2023-11-19T11:00:55;98099.58;;;13.59;41.74
75945;BME280;64628;50.104;14.614;2023-11-19T11:03:19;98099.81;;;14.20;40.88
75945;BME280;64628;50.104;14.614;2023-11-19T11:05:46;98096.21;;;14.27;41.11
75945;BME280;64628;50.104;14.614;2023-11-19T11:08:10;98095.26;;;14.69;40.36
75945;BME280;64628;50.104;14.614;2023-11-19T11:10:41;98091.10;;;15.54;39.20
75945;BME280;64628;50.104;14.614;2023-11-19T11:13:03;98082.10;;;16.43;38.13
75945;BME280;64628;50.104;14.614;2023-11-19T11:15:27;98079.73;;;15.74;37.52
75945;BME280;64628;50.104;14.614;2023-11-19T11:17:56;98087.16;;;16.36;37.21
75945;BME280;64628;50.104;14.614;2023-11-19T11:20:16;98089.97;;;16.65;37.36
75945;BME280;64628;50.104;14.614;2023-11-19T11:22:54;98080.65;;;16.29;37.48
75945;BME280;64628;50.104;14.614;2023-11-19T11:25:19;98071.44;;;16.81;36.85
75945;BME280;64628;50.104;14.614;2023-11-19T11:27:48;98070.56;;;16.83;36.39
75945;BME280;64628;50.104;14.614;2023-11-19T11:30:05;98075.23;;;16.52;36.49
75945;BME280;64628;50.104;14.614;2023-11-19T11:32:34;98072.59;;;16.46;36.69
75945;BME280;64628;50.104;14.614;2023-11-19T11:34:57;98061.55;;;16.66;36.31
75945;BME280;64628;50.104;14.614;2023-11-19T11:37:18;98054.61;;;16.48;36.62
75945;BME280;64628;50.104;14.614;2023-11-19T11:39:40;98064.96;;;16.46;37.04
75945;BME280;64628;50.104;14.614;2023-11-19T11:46:55;98078.66;;;16.21;37.54
75945;BME280;64628;50.104;14.614;2023-11-19T11:49:25;98081.21;;;15.74;37.08
75945;BME280;64628;50.104;14.614;2023-11-19T11:51:58;98085.56;;;15.56;37.64
75945;BME280;64628;50.104;14.614;2023-11-19T11:54:11;98087.00;;;15.84;37.46
75945;BME280;64628;50.104;14.614;2023-11-19T11:56:38;98075.19;;;16.04;38.16
75945;BME280;64628;50.104;14.614;2023-11-19T11:59:00;98075.29;;;16.07;36.74
75945;BME280;64628;50.104;14.614;2023-11-19T12:01:26;98076.18;;;16.58;37.57
75945;BME280;64628;50.104;14.614;2023-11-19T12:03:51;98076.17;;;16.92;36.10
75945;BME280;64628;50.104;14.614;2023-11-19T12:06:16;98068.09;;;17.04;35.76
75945;BME280;64628;50.104;14.614;2023-11-19T12:08:41;98066.47;;;17.22;35.10
75945;BME280;64628;50.104;14.614;2023-11-19T12:11:07;98068.91;;;16.71;34.93
75945;BME280;64628;50.104;14.614;2023-11-19T12:13:46;98066.18;;;17.17;35.06
75945;BME280;64628;50.104;14.614;2023-11-19T12:16:07;98062.48;;;17.69;34.99
75945;BME280;64628;50.104;14.614;2023-11-19T12:18:23;98060.93;;;17.60;34.06
75945;BME280;64628;50.104;14.614;2023-11-19T12:20:48;98060.44;;;17.34;34.35
75945;BME280;64628;50.104;14.614;2023-11-19T12:23:14;98060.50;;;17.09;34.01
75945;BME280;64628;50.104;14.614;2023-11-19T12:25:39;98060.16;;;16.83;34.52
75945;BME280;64628;50.104;14.614;2023-11-19T12:28:04;98054.44;;;16.51;35.01
75945;BME280;64628;50.104;14.614;2023-11-19T12:30:29;98055.89;;;15.67;35.89
75945;BME280;64628;50.104;14.614;2023-11-19T12:32:54;98045.47;;;15.50;36.25
75945;BME280;64628;50.104;14.614;2023-11-19T12:35:20;98037.73;;;15.77;36.27
75945;BME280;64628;50.104;14.614;2023-11-19T12:37:47;98048.87;;;15.68;36.89
75945;BME280;64628;50.104;14.614;2023-11-19T12:40:14;98044.15;;;15.32;36.60
75945;BME280;64628;50.104;14.614;2023-11-19T12:42:37;98043.57;;;15.45;36.94
75945;BME280;64628;50.104;14.614;2023-11-19T12:45:03;98034.20;;;15.43;37.14
75945;BME280;64628;50.104;14.614;2023-11-19T12:47:28;98025.94;;;14.97;37.61
75945;BME280;64628;50.104;14.614;2023-11-19T12:49:57;98021.53;;;15.28;37.64
75945;BME280;64628;50.104;14.614;2023-11-19T12:52:19;98013.70;;;15.06;37.89
75945;BME280;64628;50.104;14.614;2023-11-19T12:54:45;98005.19;;;15.02;37.63
75945;BME280;64628;50.104;14.614;2023-11-19T12:57:10;98015.71;;;15.16;37.60